sensor_id;sensor_type;location;lat;lon;timestamp;P1;durP1;ratioP1;P2;durP2;ratioP2
84862;SDS011;75117;43.224;76.776;2024-03-07T00:00:10;25.75;;;18.48;;
84862;SDS011;75117;43.224;76.776;2024-03-07T00:00:27;25.60;;;16.90;;
84862;SDS011;75117;43.224;76.776;2024-03-07T00:00:39;24.90;;;16.23;;
84862;SDS011;75117;43.224;76.776;2024-03-07T00:00:53;22.65;;;15.25;;
84862;SDS011;75117;43.224;76.776;2024-03-07T00:01:06;22.10;;;14.80;;
84862;SDS011;75117;43.224;76.776;2024-03-07T00:01:19;22.20;;;14.98;;
84862;SDS011;75117;43.224;76.776;2024-03-07T00:01:32;23.08;;;15.32;;
84862;SDS011;75117;43.224;76.776;2024-03-07T00:01:44;22.60;;;14.48;;
84862;SDS011;75117;43.224;76.776;2024-03-07T00:01:56;24.92;;;15.55;;
84862;SDS011;75117;43.224;76.776;2024-03-07T00:02:09;26.02;;;16.63;;
84862;SDS011;75117;43.224;76.776;2024-03-07T00:02:22;25.73;;;17.15;;
84862;SDS011;75117;43.224;76.776;2024-03-07T00:02:35;24.38;;;17.67;;
84862;SDS011;75117;43.224;76.776;2024-03-07T00:02:48;25.60;;;17.45;;
84862;SDS011;75117;43.224;76.776;2024-03-07T00:03:02;26.67;;;17.17;;
84862;SDS011;75117;43.224;76.776;2024-03-07T00:03:15;23.85;;;16.48;;
84862;SDS011;75117;43.224;76.776;2024-03-07T00:03:28;22.13;;;15.90;;
84862;SDS011;75117;43.224;76.776;2024-03-07T00:03:41;22.52;;;16.42;;
84862;SDS011;75117;43.224;76.776;2024-03-07T00:03:53;23.77;;;16.35;;
84862;SDS011;75117;43.224;76.776;2024-03-07T00:04:05;23.63;;;15.38;;
84862;SDS011;75117;43.224;76.776;2024-03-07T00:04:18;24.50;;;15.00;;
84862;SDS011;75117;43.224;76.776;2024-03-07T00:04:30;23.90;;;14.75;;
84862;SDS011;75117;43.224;76.776;2024-03-07T00:04:43;22.35;;;14.63;;
84862;SDS011;75117;43.224;76.776;2024-03-07T00:04:56;23.10;;;14.88;;
84862;SDS011;75117;43.224;76.776;2024-03-07T00:05:08;25.30;;;15.50;;
84862;SDS011;75117;43.224;76.776;2024-03-07T00:05:21;27.85;;;16.05;;
84862;SDS011;75117;43.224;76.776;2024-03-07T00:05:37;25.30;;;15.60;;
84862;SDS011;75117;43.224;76.776;2024-03-07T00:05:49;21.65;;;13.98;;
84862;SDS011;75117;43.224;76.776;2024-03-07T00:06:01;22.58;;;14.52;;
84862;SDS011;75117;43.224;76.776;2024-03-07T00:06:14;22.35;;;15.20;;
84862;SDS011;75117;43.224;76.776;2024-03-07T00:06:27;22.00;;;14.93;;
84862;SDS011;75117;43.224;76.776;2024-03-07T00:06:39;21.85;;;14.90;;
84862;SDS011;75117;43.224;76.776;2024-03-07T00:06:53;21.33;;;14.65;;
84862;SDS011;75117;43.224;76.776;2024-03-07T00:07:05;23.17;;;14.57;;
84862;SDS011;75117;43.224;76.776;2024-03-07T00:07:19;21.83;;;14.55;;
84862;SDS011;75117;43.224;76.776;2024-03-07T00:07:32;19.70;;;14.18;;
84862;SDS011;75117;43.224;76.776;2024-03-07T00:07:45;20.42;;;13.70;;
84862;SDS011;75117;43.224;76.776;2024-03-07T00:07:58;20.85;;;13.45;;
84862;SDS011;75117;43.224;76.776;2024-03-07T00:08:11;19.10;;;13.60;;
84862;SDS011;75117;43.224;76.776;2024-03-07T00:08:24;19.80;;;13.82;;
84862;SDS011;75117;43.224;76.776;2024-03-07T00:08:37;21.42;;;14.27;;
84862;SDS011;75117;43.224;76.776;2024-03-07T00:08:49;22.58;;;14.90;;
84862;SDS011;75117;43.224;76.776;2024-03-07T00:09:01;20.13;;;13.70;;
84862;SDS011;75117;43.224;76.776;2024-03-07T00:09:14;21.50;;;13.82;;
84862;SDS011;75117;43.224;76.776;2024-03-07T00:09:27;21.23;;;13.60;;
84862;SDS011;75117;43.224;76.776;2024-03-07T00:09:39;18.65;;;12.65;;
84862;SDS011;75117;43.224;76.776;2024-03-07T00:09:51;18.02;;;11.95;;
84862;SDS011;75117;43.224;76.776;2024-03-07T00:10:05;19.15;;;12.93;;
84862;SDS011;75117;43.224;76.776;2024-03-07T00:10:18;20.45;;;12.85;;
84862;SDS011;75117;43.224;76.776;2024-03-07T00:10:33;19.88;;;12.20;;
84862;SDS011;75117;43.224;76.776;2024-03-07T00:10:47;17.40;;;11.63;;
84862;SDS011;75117;43.224;76.776;2024-03-07T00:11:00;17.08;;;11.80;;
84862;SDS011;75117;43.224;76.776;2024-03-07T00:11:13;17.30;;;12.55;;
84862;SDS011;75117;43.224;76.776;2024-03-07T00:11:25;18.48;;;13.60;;
84862;SDS011;75117;43.224;76.776;2024-03-07T00:11:37;19.67;;;13.80;;
84862;SDS011;75117;43.224;76.776;2024-03-07T00:11:50;19.00;;;13.80;;
84862;SDS011;75117;43.224;76.776;2024-03-07T00:12:02;17.98;;;13.25;;
84862;SDS011;75117;43.224;76.776;2024-03-07T00:12:16;19.27;;;13.45;;
84862;SDS011;75117;43.224;76.776;2024-03-07T00:12:28;20.17;;;13.52;;
84862;SDS011;75117;43.224;76.776;2024-03-07T00:12:41;21.85;;;13.77;;
84862;SDS011;75117;43.224;76.776;2024-03-07T00:12:54;21.35;;;13.52;;
84862;SDS011;75117;43.224;76.776;2024-03-07T00:13:06;19.67;;;13.43;;
84862;SDS011;75117;43.224;76.776;2024-03-07T00:13:19;19.92;;;13.82;;
84862;SDS011;75117;43.224;76.776;2024-03-07T00:13:32;20.48;;;13.82;;
84862;SDS011;75117;43.224;76.776;2024-03-07T00:13:45;22.73;;;14.15;;
84862;SDS011;75117;43.224;76.776;2024-03-07T00:13:57;23.95;;;15.23;;
84862;SDS011;75117;43.224;76.776;2024-03-07T00:14:10;24.90;;;15.35;;
84862;SDS011;75117;43.224;76.776;2024-03-07T00:14:22;22.45;;;15.13;;
84862;SDS011;75117;43.224;76.776;2024-03-07T00:14:38;22.85;;;15.68;;
84862;SDS011;75117;43.224;76.776;2024-03-07T00:14:50;22.42;;;15.63;;
84862;SDS011;75117;43.224;76.776;2024-03-07T00:15:03;23.33;;;15.57;;
84862;SDS011;75117;43.224;76.776;2024-03-07T00:15:15;24.95;;;15.63;;
84862;SDS011;75117;43.224;76.776;2024-03-07T00:15:29;22.65;;;15.15;;
84862;SDS011;75117;43.224;76.776;2024-03-07T00:15:41;23.13;;;14.75;;
84862;SDS011;75117;43.224;76.776;2024-03-07T00:15:54;23.90;;;15.48;;
84862;SDS011;75117;43.224;76.776;2024-03-07T00:16:06;21.85;;;15.07;;
84862;SDS011;75117;43.224;76.776;2024-03-07T00:16:18;23.52;;;14.70;;
84862;SDS011;75117;43.224;76.776;2024-03-07T00:16:31;23.42;;;14.75;;
84862;SDS011;75117;43.224;76.776;2024-03-07T00:16:45;23.52;;;15.27;;
84862;SDS011;75117;43.224;76.776;2024-03-07T00:16:57;23.23;;;15.88;;
84862;SDS011;75117;43.224;76.776;2024-03-07T00:17:13;23.40;;;16.65;;
84862;SDS011;75117;43.224;76.776;2024-03-07T00:17:25;23.25;;;16.95;;
84862;SDS011;75117;43.224;76.776;2024-03-07T00:17:38;24.15;;;15.48;;
84862;SDS011;75117;43.224;76.776;2024-03-07T00:17:51;23.35;;;14.45;;
84862;SDS011;75117;43.224;76.776;2024-03-07T00:18:04;22.63;;;14.50;;
84862;SDS011;75117;43.224;76.776;2024-03-07T00:18:17;21.73;;;14.55;;
84862;SDS011;75117;43.224;76.776;2024-03-07T00:18:29;21.02;;;14.27;;
84862;SDS011;75117;43.224;76.776;2024-03-07T00:18:42;19.40;;;14.32;;
84862;SDS011;75117;43.224;76.776;2024-03-07T00:18:54;18.77;;;14.53;;
84862;SDS011;75117;43.224;76.776;2024-03-07T00:19:07;19.15;;;13.93;;
84862;SDS011;75117;43.224;76.776;2024-03-07T00:19:19;20.80;;;14.80;;
84862;SDS011;75117;43.224;76.776;2024-03-07T00:19:32;21.55;;;15.63;;
84862;SDS011;75117;43.224;76.776;2024-03-07T00:19:45;21.63;;;16.00;;
84862;SDS011;75117;43.224;76.776;2024-03-07T00:19:59;22.42;;;15.75;;
84862;SDS011;75117;43.224;76.776;2024-03-07T00:20:12;22.17;;;16.02;;
84862;SDS011;75117;43.224;76.776;2024-03-07T00:20:30;19.15;;;12.77;;
84862;SDS011;75117;43.224;76.776;2024-03-07T00:20:43;18.65;;;13.18;;
84862;SDS011;75117;43.224;76.776;2024-03-07T00:20:55;17.48;;;14.20;;
84862;SDS011;75117;43.224;76.776;2024-03-07T00:21:07;19.67;;;14.00;;
84862;SDS011;75117;43.224;76.776;2024-03-07T00:21:20;22.35;;;13.15;;
84862;SDS011;75117;43.224;76.776;2024-03-07T00:21:32;22.25;;;13.65;;
84862;SDS011;75117;43.224;76.776;2024-03-07T00:21:44;23.20;;;15.45;;
84862;SDS011;75117;43.224;76.776;2024-03-07T00:21:57;23.80;;;16.05;;
84862;SDS011;75117;43.224;76.776;2024-03-07T00:22:09;24.23;;;15.57;;
84862;SDS011;75117;43.224;76.776;2024-03-07T00:22:22;23.00;;;14.77;;
84862;SDS011;75117;43.224;76.776;2024-03-07T00:22:35;24.05;;;14.95;;
84862;SDS011;75117;43.224;76.776;2024-03-07T00:22:48;24.60;;;15.50;;
84862;SDS011;75117;43.224;76.776;2024-03-07T00:23:00;24.75;;;15.25;;
84862;SDS011;75117;43.224;76.776;2024-03-07T00:23:14;23.70;;;15.57;;
84862;SDS011;75117;43.224;76.776;2024-03-07T00:23:28;24.73;;;16.35;;
84862;SDS011;75117;43.224;76.776;2024-03-07T00:23:41;25.52;;;17.05;;
84862;SDS011;75117;43.224;76.776;2024-03-07T00:23:53;25.25;;;16.90;;
84862;SDS011;75117;43.224;76.776;2024-03-07T00:24:06;24.88;;;16.02;;
84862;SDS011;75117;43.224;76.776;2024-03-07T00:24:19;23.80;;;15.75;;
84862;SDS011;75117;43.224;76.776;2024-03-07T00:24:32;22.02;;;14.80;;
84862;SDS011;75117;43.224;76.776;2024-03-07T00:24:44;21.85;;;14.45;;
84862;SDS011;75117;43.224;76.776;2024-03-07T00:24:59;22.50;;;14.45;;
84862;SDS011;75117;43.224;76.776;2024-03-07T00:25:11;22.33;;;14.77;;
84862;SDS011;75117;43.224;76.776;2024-03-07T00:25:27;21.67;;;15.40;;
84862;SDS011;75117;43.224;76.776;2024-03-07T00:25:39;19.77;;;14.75;;
84862;SDS011;75117;43.224;76.776;2024-03-07T00:25:52;19.20;;;15.05;;
84862;SDS011;75117;43.224;76.776;2024-03-07T00:26:04;20.27;;;14.45;;
84862;SDS011;75117;43.224;76.776;2024-03-07T00:26:17;22.05;;;14.18;;
84862;SDS011;75117;43.224;76.776;2024-03-07T00:26:29;22.40;;;14.18;;
84862;SDS011;75117;43.224;76.776;2024-03-07T00:26:42;21.48;;;14.48;;
84862;SDS011;75117;43.224;76.776;2024-03-07T00:26:54;19.60;;;13.68;;
84862;SDS011;75117;43.224;76.776;2024-03-07T00:27:08;22.42;;;14.65;;
84862;SDS011;75117;43.224;76.776;2024-03-07T00:27:20;23.58;;;15.27;;
84862;SDS011;75117;43.224;76.776;2024-03-07T00:27:33;23.17;;;14.98;;
84862;SDS011;75117;43.224;76.776;2024-03-07T00:27:45;23.80;;;14.77;;
84862;SDS011;75117;43.224;76.776;2024-03-07T00:27:57;24.50;;;14.32;;
84862;SDS011;75117;43.224;76.776;2024-03-07T00:28:14;24.25;;;14.52;;
84862;SDS011;75117;43.224;76.776;2024-03-07T00:28:28;21.83;;;14.70;;
84862;SDS011;75117;43.224;76.776;2024-03-07T00:28:44;21.13;;;14.07;;
84862;SDS011;75117;43.224;76.776;2024-03-07T00:28:56;20.17;;;13.48;;
84862;SDS011;75117;43.224;76.776;2024-03-07T00:29:09;18.15;;;12.52;;
84862;SDS011;75117;43.224;76.776;2024-03-07T00:29:22;19.35;;;13.15;;
84862;SDS011;75117;43.224;76.776;2024-03-07T00:29:34;23.25;;;14.68;;
84862;SDS011;75117;43.224;76.776;2024-03-07T00:29:49;22.17;;;14.88;;
84862;SDS011;75117;43.224;76.776;2024-03-07T00:30:05;18.30;;;14.27;;
84862;SDS011;75117;43.224;76.776;2024-03-07T00:30:20;18.27;;;13.73;;
84862;SDS011;75117;43.224;76.776;2024-03-07T00:30:33;19.42;;;14.00;;
84862;SDS011;75117;43.224;76.776;2024-03-07T00:30:46;20.13;;;13.80;;
84862;SDS011;75117;43.224;76.776;2024-03-07T00:30:59;20.55;;;14.13;;
84862;SDS011;75117;43.224;76.776;2024-03-07T00:31:11;20.70;;;15.18;;
84862;SDS011;75117;43.224;76.776;2024-03-07T00:31:23;18.95;;;14.10;;
84862;SDS011;75117;43.224;76.776;2024-03-07T00:31:36;21.38;;;13.38;;
84862;SDS011;75117;43.224;76.776;2024-03-07T00:31:49;22.63;;;13.05;;
84862;SDS011;75117;43.224;76.776;2024-03-07T00:32:01;21.67;;;13.20;;
84862;SDS011;75117;43.224;76.776;2024-03-07T00:32:14;19.90;;;13.68;;
84862;SDS011;75117;43.224;76.776;2024-03-07T00:32:26;21.27;;;13.73;;
84862;SDS011;75117;43.224;76.776;2024-03-07T00:32:41;21.27;;;14.27;;
84862;SDS011;75117;43.224;76.776;2024-03-07T00:32:53;19.52;;;13.55;;
84862;SDS011;75117;43.224;76.776;2024-03-07T00:33:07;17.38;;;12.75;;
84862;SDS011;75117;43.224;76.776;2024-03-07T00:33:19;19.65;;;13.02;;
84862;SDS011;75117;43.224;76.776;2024-03-07T00:33:33;19.85;;;13.70;;
84862;SDS011;75117;43.224;76.776;2024-03-07T00:33:45;18.23;;;13.18;;
84862;SDS011;75117;43.224;76.776;2024-03-07T00:33:58;17.60;;;12.25;;
84862;SDS011;75117;43.224;76.776;2024-03-07T00:34:11;17.73;;;12.20;;
84862;SDS011;75117;43.224;76.776;2024-03-07T00:34:25;17.17;;;13.18;;
84862;SDS011;75117;43.224;76.776;2024-03-07T00:34:38;16.27;;;12.55;;
84862;SDS011;75117;43.224;76.776;2024-03-07T00:34:51;16.23;;;12.75;;
84862;SDS011;75117;43.224;76.776;2024-03-07T00:35:04;17.63;;;12.70;;
84862;SDS011;75117;43.224;76.776;2024-03-07T00:35:22;17.58;;;12.40;;
84862;SDS011;75117;43.224;76.776;2024-03-07T00:35:34;15.95;;;11.98;;
84862;SDS011;75117;43.224;76.776;2024-03-07T00:35:46;15.48;;;11.85;;
84862;SDS011;75117;43.224;76.776;2024-03-07T00:35:59;16.70;;;11.27;;
84862;SDS011;75117;43.224;76.776;2024-03-07T00:36:11;18.08;;;11.65;;
84862;SDS011;75117;43.224;76.776;2024-03-07T00:36:24;19.83;;;12.43;;
84862;SDS011;75117;43.224;76.776;2024-03-07T00:36:36;17.65;;;12.57;;
84862;SDS011;75117;43.224;76.776;2024-03-07T00:36:50;15.50;;;12.07;;
84862;SDS011;75117;43.224;76.776;2024-03-07T00:37:03;16.60;;;11.45;;
84862;SDS011;75117;43.224;76.776;2024-03-07T00:37:16;17.17;;;11.15;;
84862;SDS011;75117;43.224;76.776;2024-03-07T00:37:29;18.23;;;12.10;;
84862;SDS011;75117;43.224;76.776;2024-03-07T00:37:42;17.35;;;12.07;;
84862;SDS011;75117;43.224;76.776;2024-03-07T00:37:54;16.33;;;11.98;;
84862;SDS011;75117;43.224;76.776;2024-03-07T00:38:08;16.30;;;12.10;;
84862;SDS011;75117;43.224;76.776;2024-03-07T00:38:20;17.90;;;13.30;;
84862;SDS011;75117;43.224;76.776;2024-03-07T00:38:32;18.90;;;13.35;;
84862;SDS011;75117;43.224;76.776;2024-03-07T00:38:45;18.58;;;12.50;;
84862;SDS011;75117;43.224;76.776;2024-03-07T00:38:57;18.25;;;12.18;;
84862;SDS011;75117;43.224;76.776;2024-03-07T00:39:11;19.38;;;13.20;;
84862;SDS011;75117;43.224;76.776;2024-03-07T00:39:24;20.55;;;13.07;;
84862;SDS011;75117;43.224;76.776;2024-03-07T00:39:39;19.98;;;12.90;;
84862;SDS011;75117;43.224;76.776;2024-03-07T00:39:52;19.05;;;13.13;;
84862;SDS011;75117;43.224;76.776;2024-03-07T00:40:04;18.13;;;13.35;;
84862;SDS011;75117;43.224;76.776;2024-03-07T00:40:17;18.67;;;13.02;;
84862;SDS011;75117;43.224;76.776;2024-03-07T00:40:31;18.40;;;12.15;;
84862;SDS011;75117;43.224;76.776;2024-03-07T00:40:44;18.73;;;12.63;;
84862;SDS011;75117;43.224;76.776;2024-03-07T00:40:56;18.45;;;12.98;;
84862;SDS011;75117;43.224;76.776;2024-03-07T00:41:09;19.02;;;12.52;;
84862;SDS011;75117;43.224;76.776;2024-03-07T00:41:21;19.42;;;12.23;;
84862;SDS011;75117;43.224;76.776;2024-03-07T00:41:34;18.88;;;12.50;;
84862;SDS011;75117;43.224;76.776;2024-03-07T00:41:46;17.15;;;11.85;;
84862;SDS011;75117;43.224;76.776;2024-03-07T00:41:59;17.20;;;12.25;;
84862;SDS011;75117;43.224;76.776;2024-03-07T00:42:11;17.98;;;12.88;;
84862;SDS011;75117;43.224;76.776;2024-03-07T00:42:23;20.08;;;14.10;;
84862;SDS011;75117;43.224;76.776;2024-03-07T00:42:36;20.77;;;13.63;;
84862;SDS011;75117;43.224;76.776;2024-03-07T00:42:48;20.00;;;13.20;;
84862;SDS011;75117;43.224;76.776;2024-03-07T00:43:00;20.70;;;12.85;;
84862;SDS011;75117;43.224;76.776;2024-03-07T00:43:13;19.58;;;13.05;;
84862;SDS011;75117;43.224;76.776;2024-03-07T00:43:25;19.88;;;13.52;;
84862;SDS011;75117;43.224;76.776;2024-03-07T00:43:38;21.15;;;13.95;;
84862;SDS011;75117;43.224;76.776;2024-03-07T00:43:50;23.35;;;15.10;;
84862;SDS011;75117;43.224;76.776;2024-03-07T00:44:02;23.70;;;15.50;;
84862;SDS011;75117;43.224;76.776;2024-03-07T00:44:15;24.13;;;15.15;;
84862;SDS011;75117;43.224;76.776;2024-03-07T00:44:27;25.92;;;15.98;;
84862;SDS011;75117;43.224;76.776;2024-03-07T00:44:40;24.58;;;15.80;;
84862;SDS011;75117;43.224;76.776;2024-03-07T00:44:52;23.20;;;16.10;;
84862;SDS011;75117;43.224;76.776;2024-03-07T00:45:04;22.00;;;16.08;;
84862;SDS011;75117;43.224;76.776;2024-03-07T00:45:18;22.42;;;15.57;;
84862;SDS011;75117;43.224;76.776;2024-03-07T00:45:30;21.92;;;14.38;;
84862;SDS011;75117;43.224;76.776;2024-03-07T00:45:44;21.02;;;13.60;;
84862;SDS011;75117;43.224;76.776;2024-03-07T00:45:56;21.55;;;13.48;;
84862;SDS011;75117;43.224;76.776;2024-03-07T00:46:08;20.13;;;13.25;;
84862;SDS011;75117;43.224;76.776;2024-03-07T00:46:22;19.30;;;14.07;;
84862;SDS011;75117;43.224;76.776;2024-03-07T00:46:35;20.00;;;13.98;;
84862;SDS011;75117;43.224;76.776;2024-03-07T00:46:48;19.80;;;13.00;;
84862;SDS011;75117;43.224;76.776;2024-03-07T00:47:01;19.67;;;12.52;;
84862;SDS011;75117;43.224;76.776;2024-03-07T00:47:14;22.40;;;13.45;;
84862;SDS011;75117;43.224;76.776;2024-03-07T00:47:26;23.85;;;14.38;;
84862;SDS011;75117;43.224;76.776;2024-03-07T00:47:39;24.42;;;14.68;;
84862;SDS011;75117;43.224;76.776;2024-03-07T00:47:51;24.85;;;14.15;;
84862;SDS011;75117;43.224;76.776;2024-03-07T00:48:04;22.52;;;13.70;;
84862;SDS011;75117;43.224;76.776;2024-03-07T00:48:17;22.77;;;13.90;;
84862;SDS011;75117;43.224;76.776;2024-03-07T00:48:30;24.30;;;14.98;;
84862;SDS011;75117;43.224;76.776;2024-03-07T00:48:42;24.95;;;15.60;;
84862;SDS011;75117;43.224;76.776;2024-03-07T00:48:54;23.48;;;15.98;;
84862;SDS011;75117;43.224;76.776;2024-03-07T00:49:06;22.35;;;15.57;;
84862;SDS011;75117;43.224;76.776;2024-03-07T00:49:19;22.55;;;15.23;;
84862;SDS011;75117;43.224;76.776;2024-03-07T00:49:31;25.10;;;15.93;;
84862;SDS011;75117;43.224;76.776;2024-03-07T00:49:44;26.20;;;16.25;;
84862;SDS011;75117;43.224;76.776;2024-03-07T00:50:00;27.23;;;15.40;;
84862;SDS011;75117;43.224;76.776;2024-03-07T00:50:12;26.50;;;15.23;;
84862;SDS011;75117;43.224;76.776;2024-03-07T00:50:25;25.27;;;15.35;;
84862;SDS011;75117;43.224;76.776;2024-03-07T00:50:37;24.27;;;15.07;;
84862;SDS011;75117;43.224;76.776;2024-03-07T00:50:50;24.70;;;15.65;;
84862;SDS011;75117;43.224;76.776;2024-03-07T00:51:03;24.27;;;16.33;;
84862;SDS011;75117;43.224;76.776;2024-03-07T00:51:16;24.10;;;16.05;;
84862;SDS011;75117;43.224;76.776;2024-03-07T00:51:28;26.55;;;15.73;;
84862;SDS011;75117;43.224;76.776;2024-03-07T00:51:41;29.33;;;15.63;;
84862;SDS011;75117;43.224;76.776;2024-03-07T00:51:53;29.92;;;15.68;;
84862;SDS011;75117;43.224;76.776;2024-03-07T00:52:06;26.73;;;15.35;;
84862;SDS011;75117;43.224;76.776;2024-03-07T00:52:20;25.33;;;15.57;;
84862;SDS011;75117;43.224;76.776;2024-03-07T00:52:32;24.52;;;15.63;;
84862;SDS011;75117;43.224;76.776;2024-03-07T00:52:44;21.73;;;15.90;;
84862;SDS011;75117;43.224;76.776;2024-03-07T00:52:57;20.05;;;14.73;;
84862;SDS011;75117;43.224;76.776;2024-03-07T00:53:11;19.33;;;13.93;;
84862;SDS011;75117;43.224;76.776;2024-03-07T00:53:23;18.75;;;13.48;;
84862;SDS011;75117;43.224;76.776;2024-03-07T00:53:35;20.38;;;13.55;;
84862;SDS011;75117;43.224;76.776;2024-03-07T00:53:48;20.95;;;14.32;;
84862;SDS011;75117;43.224;76.776;2024-03-07T00:54:00;19.42;;;13.57;;
84862;SDS011;75117;43.224;76.776;2024-03-07T00:54:13;17.98;;;12.95;;
84862;SDS011;75117;43.224;76.776;2024-03-07T00:54:25;19.25;;;13.48;;
84862;SDS011;75117;43.224;76.776;2024-03-07T00:54:37;21.67;;;13.38;;
84862;SDS011;75117;43.224;76.776;2024-03-07T00:54:50;22.38;;;13.90;;
84862;SDS011;75117;43.224;76.776;2024-03-07T00:55:03;21.85;;;14.15;;
84862;SDS011;75117;43.224;76.776;2024-03-07T00:55:15;21.83;;;13.45;;
84862;SDS011;75117;43.224;76.776;2024-03-07T00:55:28;21.80;;;13.80;;
84862;SDS011;75117;43.224;76.776;2024-03-07T00:55:40;19.20;;;13.93;;
84862;SDS011;75117;43.224;76.776;2024-03-07T00:55:52;20.70;;;14.13;;
84862;SDS011;75117;43.224;76.776;2024-03-07T00:56:05;18.48;;;13.55;;
84862;SDS011;75117;43.224;76.776;2024-03-07T00:56:20;18.08;;;15.10;;
84862;SDS011;75117;43.224;76.776;2024-03-07T00:56:32;19.55;;;14.98;;
84862;SDS011;75117;43.224;76.776;2024-03-07T00:56:45;21.67;;;14.43;;
84862;SDS011;75117;43.224;76.776;2024-03-07T00:57:00;21.50;;;14.63;;
84862;SDS011;75117;43.224;76.776;2024-03-07T00:57:13;19.10;;;14.52;;
84862;SDS011;75117;43.224;76.776;2024-03-07T00:57:26;19.77;;;13.75;;
84862;SDS011;75117;43.224;76.776;2024-03-07T00:57:38;19.33;;;13.83;;
84862;SDS011;75117;43.224;76.776;2024-03-07T00:57:51;20.38;;;14.10;;
84862;SDS011;75117;43.224;76.776;2024-03-07T00:58:04;21.48;;;14.00;;
84862;SDS011;75117;43.224;76.776;2024-03-07T00:58:17;21.42;;;13.35;;
84862;SDS011;75117;43.224;76.776;2024-03-07T00:58:29;21.45;;;13.68;;
84862;SDS011;75117;43.224;76.776;2024-03-07T00:58:42;22.35;;;13.65;;
84862;SDS011;75117;43.224;76.776;2024-03-07T00:58:54;21.92;;;13.60;;
84862;SDS011;75117;43.224;76.776;2024-03-07T00:59:08;20.52;;;14.10;;
84862;SDS011;75117;43.224;76.776;2024-03-07T00:59:20;20.40;;;14.88;;
84862;SDS011;75117;43.224;76.776;2024-03-07T00:59:33;20.65;;;14.32;;
84862;SDS011;75117;43.224;76.776;2024-03-07T00:59:46;21.23;;;13.60;;
84862;SDS011;75117;43.224;76.776;2024-03-07T00:59:59;20.83;;;14.10;;
84862;SDS011;75117;43.224;76.776;2024-03-07T01:00:12;20.83;;;14.45;;
84862;SDS011;75117;43.224;76.776;2024-03-07T01:00:25;20.35;;;13.25;;
84862;SDS011;75117;43.224;76.776;2024-03-07T01:00:39;18.85;;;12.82;;
84862;SDS011;75117;43.224;76.776;2024-03-07T01:00:54;19.13;;;12.73;;
84862;SDS011;75117;43.224;76.776;2024-03-07T01:01:07;22.23;;;14.30;;
84862;SDS011;75117;43.224;76.776;2024-03-07T01:01:20;24.33;;;15.25;;
84862;SDS011;75117;43.224;76.776;2024-03-07T01:01:32;24.75;;;15.50;;
84862;SDS011;75117;43.224;76.776;2024-03-07T01:01:47;24.95;;;15.68;;
84862;SDS011;75117;43.224;76.776;2024-03-07T01:02:00;21.75;;;14.95;;
84862;SDS011;75117;43.224;76.776;2024-03-07T01:02:13;19.88;;;14.32;;
84862;SDS011;75117;43.224;76.776;2024-03-07T01:02:26;20.88;;;14.10;;
84862;SDS011;75117;43.224;76.776;2024-03-07T01:02:39;21.20;;;14.38;;
84862;SDS011;75117;43.224;76.776;2024-03-07T01:02:55;21.30;;;14.15;;
84862;SDS011;75117;43.224;76.776;2024-03-07T01:03:09;20.92;;;14.05;;
84862;SDS011;75117;43.224;76.776;2024-03-07T01:03:25;22.10;;;14.35;;
84862;SDS011;75117;43.224;76.776;2024-03-07T01:03:38;22.30;;;14.32;;
84862;SDS011;75117;43.224;76.776;2024-03-07T01:03:50;22.83;;;14.02;;
84862;SDS011;75117;43.224;76.776;2024-03-07T01:04:03;23.77;;;13.63;;
84862;SDS011;75117;43.224;76.776;2024-03-07T01:04:15;23.25;;;13.48;;
84862;SDS011;75117;43.224;76.776;2024-03-07T01:04:29;20.77;;;13.07;;
84862;SDS011;75117;43.224;76.776;2024-03-07T01:05:01;21.90;;;15.85;;
84862;SDS011;75117;43.224;76.776;2024-03-07T01:05:19;22.17;;;14.85;;
84862;SDS011;75117;43.224;76.776;2024-03-07T01:05:31;22.75;;;13.82;;
84862;SDS011;75117;43.224;76.776;2024-03-07T01:05:44;20.60;;;13.30;;
84862;SDS011;75117;43.224;76.776;2024-03-07T01:05:57;21.42;;;14.80;;
84862;SDS011;75117;43.224;76.776;2024-03-07T01:06:10;23.10;;;15.68;;
84862;SDS011;75117;43.224;76.776;2024-03-07T01:06:23;23.00;;;14.50;;
84862;SDS011;75117;43.224;76.776;2024-03-07T01:06:35;23.42;;;14.45;;
84862;SDS011;75117;43.224;76.776;2024-03-07T01:06:48;23.97;;;15.30;;
84862;SDS011;75117;43.224;76.776;2024-03-07T01:07:02;24.55;;;15.55;;
84862;SDS011;75117;43.224;76.776;2024-03-07T01:07:14;22.98;;;14.68;;
84862;SDS011;75117;43.224;76.776;2024-03-07T01:07:27;20.80;;;14.35;;
84862;SDS011;75117;43.224;76.776;2024-03-07T01:07:39;20.42;;;14.05;;
84862;SDS011;75117;43.224;76.776;2024-03-07T01:07:52;19.83;;;13.85;;
84862;SDS011;75117;43.224;76.776;2024-03-07T01:08:07;20.63;;;14.65;;
84862;SDS011;75117;43.224;76.776;2024-03-07T01:08:19;24.15;;;15.32;;
84862;SDS011;75117;43.224;76.776;2024-03-07T01:08:31;24.90;;;15.60;;
84862;SDS011;75117;43.224;76.776;2024-03-07T01:08:44;22.58;;;15.35;;
84862;SDS011;75117;43.224;76.776;2024-03-07T01:08:56;18.92;;;14.25;;
84862;SDS011;75117;43.224;76.776;2024-03-07T01:09:09;18.02;;;13.75;;
84862;SDS011;75117;43.224;76.776;2024-03-07T01:09:26;18.60;;;13.57;;
84862;SDS011;75117;43.224;76.776;2024-03-07T01:09:40;20.25;;;13.88;;
84862;SDS011;75117;43.224;76.776;2024-03-07T01:09:52;22.73;;;14.77;;
84862;SDS011;75117;43.224;76.776;2024-03-07T01:10:06;23.38;;;15.68;;
84862;SDS011;75117;43.224;76.776;2024-03-07T01:10:20;24.80;;;16.92;;
84862;SDS011;75117;43.224;76.776;2024-03-07T01:10:33;24.70;;;16.23;;
84862;SDS011;75117;43.224;76.776;2024-03-07T01:10:46;21.73;;;14.38;;
84862;SDS011;75117;43.224;76.776;2024-03-07T01:10:59;19.92;;;14.07;;
84862;SDS011;75117;43.224;76.776;2024-03-07T01:11:12;19.85;;;14.95;;
84862;SDS011;75117;43.224;76.776;2024-03-07T01:11:24;21.30;;;14.70;;
84862;SDS011;75117;43.224;76.776;2024-03-07T01:11:37;23.40;;;14.77;;
84862;SDS011;75117;43.224;76.776;2024-03-07T01:11:49;23.77;;;15.07;;
84862;SDS011;75117;43.224;76.776;2024-03-07T01:12:02;20.77;;;14.27;;
84862;SDS011;75117;43.224;76.776;2024-03-07T01:12:17;18.27;;;12.55;;
84862;SDS011;75117;43.224;76.776;2024-03-07T01:12:31;18.10;;;12.18;;
84862;SDS011;75117;43.224;76.776;2024-03-07T01:12:45;17.55;;;13.02;;
84862;SDS011;75117;43.224;76.776;2024-03-07T01:12:58;16.83;;;12.88;;
84862;SDS011;75117;43.224;76.776;2024-03-07T01:13:13;17.92;;;12.77;;
84862;SDS011;75117;43.224;76.776;2024-03-07T01:13:30;19.60;;;12.82;;
84862;SDS011;75117;43.224;76.776;2024-03-07T01:13:43;20.50;;;13.30;;
84862;SDS011;75117;43.224;76.776;2024-03-07T01:13:55;19.02;;;13.05;;
84862;SDS011;75117;43.224;76.776;2024-03-07T01:14:08;18.38;;;13.23;;
84862;SDS011;75117;43.224;76.776;2024-03-07T01:14:21;19.73;;;13.55;;
84862;SDS011;75117;43.224;76.776;2024-03-07T01:14:33;20.25;;;13.38;;
84862;SDS011;75117;43.224;76.776;2024-03-07T01:14:47;18.00;;;12.88;;
84862;SDS011;75117;43.224;76.776;2024-03-07T01:14:59;22.17;;;12.73;;
84862;SDS011;75117;43.224;76.776;2024-03-07T01:15:12;24.15;;;13.57;;